sensor_id;sensor_type;location;lat;lon;timestamp;P1;durP1;ratioP1;P2;durP2;ratioP2
27365;SDS011;14837;57.148;-2.144;2023-06-01T00:00:50;2.03;;;1.20;;
27365;SDS011;14837;57.148;-2.144;2023-06-01T00:03:17;2.55;;;1.15;;
27365;SDS011;14837;57.148;-2.144;2023-06-01T00:05:43;3.63;;;1.10;;
27365;SDS011;14837;57.148;-2.144;2023-06-01T00:08:10;1.48;;;0.73;;
27365;SDS011;14837;57.148;-2.144;2023-06-01T00:10:37;3.40;;;0.93;;
27365;SDS011;14837;57.148;-2.144;2023-06-01T00:13:03;2.92;;;1.10;;
27365;SDS011;14837;57.148;-2.144;2023-06-01T00:15:30;3.50;;;0.98;;
27365;SDS011;14837;57.148;-2.144;2023-06-01T00:17:56;1.50;;;1.05;;
27365;SDS011;14837;57.148;-2.144;2023-06-01T00:20:23;2.97;;;0.90;;
27365;SDS011;14837;57.148;-2.144;2023-06-01T00:22:50;1.80;;;0.82;;
27365;SDS011;14837;57.148;-2.144;2023-06-01T00:25:17;1.75;;;1.15;;
27365;SDS011;14837;57.148;-2.144;2023-06-01T00:27:44;1.42;;;1.00;;
27365;SDS011;14837;57.148;-2.144;2023-06-01T00:30:10;5.15;;;1.15;;
27365;SDS011;14837;57.148;-2.144;2023-06-01T00:32:37;1.50;;;0.65;;
27365;SDS011;14837;57.148;-2.144;2023-06-01T00:35:04;3.00;;;0.95;;
27365;SDS011;14837;57.148;-2.144;2023-06-01T00:37:31;1.40;;;0.90;;
27365;SDS011;14837;57.148;-2.144;2023-06-01T00:39:58;1.88;;;0.70;;
27365;SDS011;14837;57.148;-2.144;2023-06-01T00:42:24;1.58;;;1.13;;
27365;SDS011;14837;57.148;-2.144;2023-06-01T00:44:51;1.10;;;0.80;;
27365;SDS011;14837;57.148;-2.144;2023-06-01T00:47:19;2.42;;;1.23;;
27365;SDS011;14837;57.148;-2.144;2023-06-01T00:49:46;2.78;;;0.85;;
27365;SDS011;14837;57.148;-2.144;2023-06-01T00:52:13;2.55;;;1.10;;
27365;SDS011;14837;57.148;-2.144;2023-06-01T00:54:40;3.20;;;1.13;;
27365;SDS011;14837;57.148;-2.144;2023-06-01T00:57:06;1.17;;;0.90;;
27365;SDS011;14837;57.148;-2.144;2023-06-01T00:59:34;2.05;;;0.82;;
27365;SDS011;14837;57.148;-2.144;2023-06-01T01:02:00;1.98;;;0.90;;
27365;SDS011;14837;57.148;-2.144;2023-06-01T01:04:30;3.25;;;0.98;;
27365;SDS011;14837;57.148;-2.144;2023-06-01T01:07:06;1.45;;;0.70;;
27365;SDS011;14837;57.148;-2.144;2023-06-01T01:09:39;1.77;;;0.80;;
27365;SDS011;14837;57.148;-2.144;2023-06-01T01:12:09;2.45;;;1.15;;
27365;SDS011;14837;57.148;-2.144;2023-06-01T01:14:59;2.20;;;0.80;;
27365;SDS011;14837;57.148;-2.144;2023-06-01T01:17:33;3.95;;;1.77;;
27365;SDS011;14837;57.148;-2.144;2023-06-01T01:20:09;1.95;;;0.90;;
27365;SDS011;14837;57.148;-2.144;2023-06-01T01:29:59;3.85;;;1.40;;
27365;SDS011;14837;57.148;-2.144;2023-06-01T01:32:29;2.97;;;1.10;;
27365;SDS011;14837;57.148;-2.144;2023-06-01T01:34:55;2.38;;;1.17;;
27365;SDS011;14837;57.148;-2.144;2023-06-01T01:37:23;2.30;;;0.80;;
27365;SDS011;14837;57.148;-2.144;2023-06-01T01:39:49;4.60;;;1.50;;
27365;SDS011;14837;57.148;-2.144;2023-06-01T01:42:16;1.45;;;1.00;;
27365;SDS011;14837;57.148;-2.144;2023-06-01T01:44:43;2.20;;;0.90;;
27365;SDS011;14837;57.148;-2.144;2023-06-01T01:49:41;1.63;;;0.77;;
27365;SDS011;14837;57.148;-2.144;2023-06-01T01:52:14;3.13;;;0.80;;
27365;SDS011;14837;57.148;-2.144;2023-06-01T01:54:42;1.48;;;0.98;;
27365;SDS011;14837;57.148;-2.144;2023-06-01T01:57:09;2.05;;;0.80;;
27365;SDS011;14837;57.148;-2.144;2023-06-01T01:59:36;1.45;;;0.90;;
27365;SDS011;14837;57.148;-2.144;2023-06-01T02:02:03;2.80;;;1.20;;
27365;SDS011;14837;57.148;-2.144;2023-06-01T02:04:31;1.55;;;0.70;;
27365;SDS011;14837;57.148;-2.144;2023-06-01T02:06:57;3.65;;;1.15;;
27365;SDS011;14837;57.148;-2.144;2023-06-01T02:09:24;1.83;;;1.02;;
27365;SDS011;14837;57.148;-2.144;2023-06-01T02:11:51;2.20;;;0.88;;
27365;SDS011;14837;57.148;-2.144;2023-06-01T02:14:17;2.60;;;0.90;;
27365;SDS011;14837;57.148;-2.144;2023-06-01T02:16:44;3.55;;;0.82;;
27365;SDS011;14837;57.148;-2.144;2023-06-01T02:19:11;1.00;;;0.88;;
27365;SDS011;14837;57.148;-2.144;2023-06-01T02:21:37;2.97;;;0.60;;
27365;SDS011;14837;57.148;-2.144;2023-06-01T02:24:04;1.55;;;1.00;;
27365;SDS011;14837;57.148;-2.144;2023-06-01T02:26:33;2.75;;;0.80;;
27365;SDS011;14837;57.148;-2.144;2023-06-01T02:29:00;2.90;;;0.95;;
27365;SDS011;14837;57.148;-2.144;2023-06-01T02:31:28;3.75;;;0.80;;
27365;SDS011;14837;57.148;-2.144;2023-06-01T02:33:55;2.40;;;0.88;;
27365;SDS011;14837;57.148;-2.144;2023-06-01T02:36:22;2.10;;;0.77;;
27365;SDS011;14837;57.148;-2.144;2023-06-01T02:38:50;3.30;;;0.70;;
27365;SDS011;14837;57.148;-2.144;2023-06-01T02:41:17;1.88;;;0.60;;
27365;SDS011;14837;57.148;-2.144;2023-06-01T02:43:43;0.90;;;0.60;;
27365;SDS011;14837;57.148;-2.144;2023-06-01T02:46:10;1.92;;;0.50;;
27365;SDS011;14837;57.148;-2.144;2023-06-01T02:48:37;0.95;;;0.60;;
27365;SDS011;14837;57.148;-2.144;2023-06-01T02:51:03;3.28;;;0.80;;
27365;SDS011;14837;57.148;-2.144;2023-06-01T02:53:30;1.80;;;0.70;;
27365;SDS011;14837;57.148;-2.144;2023-06-01T02:55:57;1.38;;;0.77;;
27365;SDS011;14837;57.148;-2.144;2023-06-01T02:58:24;1.60;;;0.47;;
27365;SDS011;14837;57.148;-2.144;2023-06-01T03:00:51;0.90;;;0.60;;
27365;SDS011;14837;57.148;-2.144;2023-06-01T03:03:18;2.08;;;0.60;;
27365;SDS011;14837;57.148;-2.144;2023-06-01T03:05:45;1.02;;;0.52;;
27365;SDS011;14837;57.148;-2.144;2023-06-01T03:08:14;0.47;;;0.40;;
27365;SDS011;14837;57.148;-2.144;2023-06-01T03:10:43;2.05;;;0.70;;
27365;SDS011;14837;57.148;-2.144;2023-06-01T03:13:09;1.63;;;0.43;;
27365;SDS011;14837;57.148;-2.144;2023-06-01T03:15:36;3.38;;;1.15;;
27365;SDS011;14837;57.148;-2.144;2023-06-01T03:18:06;1.02;;;0.70;;
27365;SDS011;14837;57.148;-2.144;2023-06-01T03:20:33;2.28;;;0.77;;
27365;SDS011;14837;57.148;-2.144;2023-06-01T03:22:59;1.77;;;0.90;;
27365;SDS011;14837;57.148;-2.144;2023-06-01T03:25:27;1.63;;;0.70;;
27365;SDS011;14837;57.148;-2.144;2023-06-01T03:27:53;3.35;;;1.05;;
27365;SDS011;14837;57.148;-2.144;2023-06-01T03:30:20;2.05;;;0.60;;
27365;SDS011;14837;57.148;-2.144;2023-06-01T03:32:47;2.15;;;0.75;;
27365;SDS011;14837;57.148;-2.144;2023-06-01T03:35:14;2.88;;;1.02;;
27365;SDS011;14837;57.148;-2.144;2023-06-01T03:37:41;1.08;;;0.70;;
27365;SDS011;14837;57.148;-2.144;2023-06-01T03:40:08;2.13;;;0.50;;
27365;SDS011;14837;57.148;-2.144;2023-06-01T03:42:40;2.28;;;0.88;;
27365;SDS011;14837;57.148;-2.144;2023-06-01T03:45:07;1.90;;;1.05;;
27365;SDS011;14837;57.148;-2.144;2023-06-01T03:47:34;1.63;;;0.80;;
27365;SDS011;14837;57.148;-2.144;2023-06-01T03:50:01;2.15;;;0.60;;
27365;SDS011;14837;57.148;-2.144;2023-06-01T03:52:28;1.73;;;0.70;;
27365;SDS011;14837;57.148;-2.144;2023-06-01T03:54:55;0.93;;;0.60;;
27365;SDS011;14837;57.148;-2.144;2023-06-01T03:57:22;2.58;;;0.85;;
27365;SDS011;14837;57.148;-2.144;2023-06-01T03:59:49;2.20;;;1.05;;
27365;SDS011;14837;57.148;-2.144;2023-06-01T04:02:17;4.93;;;0.80;;
27365;SDS011;14837;57.148;-2.144;2023-06-01T04:04:45;3.25;;;0.55;;
27365;SDS011;14837;57.148;-2.144;2023-06-01T04:07:12;2.67;;;0.90;;
27365;SDS011;14837;57.148;-2.144;2023-06-01T04:09:41;4.22;;;1.20;;
27365;SDS011;14837;57.148;-2.144;2023-06-01T04:12:08;1.95;;;0.75;;
27365;SDS011;14837;57.148;-2.144;2023-06-01T04:14:34;1.85;;;0.75;;
27365;SDS011;14837;57.148;-2.144;2023-06-01T04:17:01;2.33;;;0.50;;
27365;SDS011;14837;57.148;-2.144;2023-06-01T04:19:28;1.73;;;0.43;;
27365;SDS011;14837;57.148;-2.144;2023-06-01T04:21:56;2.35;;;0.80;;
27365;SDS011;14837;57.148;-2.144;2023-06-01T04:24:22;1.85;;;0.90;;
27365;SDS011;14837;57.148;-2.144;2023-06-01T04:26:49;1.17;;;0.50;;
27365;SDS011;14837;57.148;-2.144;2023-06-01T04:29:16;0.55;;;0.43;;
27365;SDS011;14837;57.148;-2.144;2023-06-01T04:31:45;1.88;;;0.60;;
27365;SDS011;14837;57.148;-2.144;2023-06-01T04:34:12;1.00;;;0.55;;
27365;SDS011;14837;57.148;-2.144;2023-06-01T04:36:38;0.90;;;0.40;;
27365;SDS011;14837;57.148;-2.144;2023-06-01T04:39:05;1.20;;;0.65;;
27365;SDS011;14837;57.148;-2.144;2023-06-01T04:41:34;0.98;;;0.57;;
27365;SDS011;14837;57.148;-2.144;2023-06-01T04:44:02;3.00;;;0.85;;
27365;SDS011;14837;57.148;-2.144;2023-06-01T04:46:32;1.88;;;0.63;;
27365;SDS011;14837;57.148;-2.144;2023-06-01T04:48:59;1.65;;;0.60;;
27365;SDS011;14837;57.148;-2.144;2023-06-01T04:51:27;1.48;;;0.57;;
27365;SDS011;14837;57.148;-2.144;2023-06-01T04:53:55;0.57;;;0.40;;
27365;SDS011;14837;57.148;-2.144;2023-06-01T04:56:22;2.75;;;1.15;;
27365;SDS011;14837;57.148;-2.144;2023-06-01T05:01:22;2.70;;;0.80;;
27365;SDS011;14837;57.148;-2.144;2023-06-01T05:03:52;2.22;;;0.50;;
27365;SDS011;14837;57.148;-2.144;2023-06-01T05:06:19;0.50;;;0.40;;
27365;SDS011;14837;57.148;-2.144;2023-06-01T05:08:46;2.28;;;0.75;;
27365;SDS011;14837;57.148;-2.144;2023-06-01T05:11:14;0.70;;;0.45;;
27365;SDS011;14837;57.148;-2.144;2023-06-01T05:13:40;0.88;;;0.50;;
27365;SDS011;14837;57.148;-2.144;2023-06-01T05:16:08;1.05;;;0.60;;
27365;SDS011;14837;57.148;-2.144;2023-06-01T05:18:35;1.30;;;0.63;;
27365;SDS011;14837;57.148;-2.144;2023-06-01T05:21:02;1.23;;;0.60;;
27365;SDS011;14837;57.148;-2.144;2023-06-01T05:23:29;0.75;;;0.50;;
27365;SDS011;14837;57.148;-2.144;2023-06-01T05:25:56;1.27;;;0.60;;
27365;SDS011;14837;57.148;-2.144;2023-06-01T05:28:32;1.17;;;0.52;;
27365;SDS011;14837;57.148;-2.144;2023-06-01T05:31:01;2.92;;;0.77;;
27365;SDS011;14837;57.148;-2.144;2023-06-01T05:33:29;0.75;;;0.50;;
27365;SDS011;14837;57.148;-2.144;2023-06-01T05:35:56;0.52;;;0.52;;
27365;SDS011;14837;57.148;-2.144;2023-06-01T05:38:22;0.90;;;0.60;;
27365;SDS011;14837;57.148;-2.144;2023-06-01T05:40:49;1.42;;;0.68;;
27365;SDS011;14837;57.148;-2.144;2023-06-01T05:43:16;1.48;;;0.57;;
27365;SDS011;14837;57.148;-2.144;2023-06-01T05:45:43;1.38;;;0.95;;
27365;SDS011;14837;57.148;-2.144;2023-06-01T05:48:09;0.60;;;0.60;;
27365;SDS011;14837;57.148;-2.144;2023-06-01T05:50:40;2.05;;;1.25;;
27365;SDS011;14837;57.148;-2.144;2023-06-01T05:53:08;3.55;;;1.10;;
27365;SDS011;14837;57.148;-2.144;2023-06-01T05:55:34;2.00;;;1.27;;
27365;SDS011;14837;57.148;-2.144;2023-06-01T05:58:01;1.92;;;0.90;;
27365;SDS011;14837;57.148;-2.144;2023-06-01T06:00:28;2.92;;;1.00;;
27365;SDS011;14837;57.148;-2.144;2023-06-01T06:02:54;3.20;;;0.80;;
27365;SDS011;14837;57.148;-2.144;2023-06-01T06:05:21;3.58;;;1.25;;
27365;SDS011;14837;57.148;-2.144;2023-06-01T06:07:48;2.15;;;0.88;;
27365;SDS011;14837;57.148;-2.144;2023-06-01T06:10:14;3.15;;;1.00;;
27365;SDS011;14837;57.148;-2.144;2023-06-01T06:12:41;3.92;;;1.10;;
27365;SDS011;14837;57.148;-2.144;2023-06-01T06:15:07;6.10;;;1.67;;
27365;SDS011;14837;57.148;-2.144;2023-06-01T06:17:34;2.83;;;1.10;;
27365;SDS011;14837;57.148;-2.144;2023-06-01T06:20:01;2.72;;;1.35;;
27365;SDS011;14837;57.148;-2.144;2023-06-01T06:22:32;4.97;;;1.70;;
27365;SDS011;14837;57.148;-2.144;2023-06-01T06:24:59;3.17;;;1.20;;
27365;SDS011;14837;57.148;-2.144;2023-06-01T06:27:26;3.08;;;1.08;;
27365;SDS011;14837;57.148;-2.144;2023-06-01T06:29:53;6.97;;;1.67;;
27365;SDS011;14837;57.148;-2.144;2023-06-01T06:32:19;6.78;;;1.30;;
27365;SDS011;14837;57.148;-2.144;2023-06-01T06:34:46;4.68;;;1.98;;
27365;SDS011;14837;57.148;-2.144;2023-06-01T06:37:13;4.57;;;1.42;;
27365;SDS011;14837;57.148;-2.144;2023-06-01T06:39:39;3.95;;;1.30;;
27365;SDS011;14837;57.148;-2.144;2023-06-01T06:42:06;1.95;;;1.25;;
27365;SDS011;14837;57.148;-2.144;2023-06-01T07:17:30;4.00;;;1.05;;
27365;SDS011;14837;57.148;-2.144;2023-06-01T07:19:57;4.65;;;1.55;;
27365;SDS011;14837;57.148;-2.144;2023-06-01T07:22:24;4.25;;;1.35;;
27365;SDS011;14837;57.148;-2.144;2023-06-01T07:24:51;1.60;;;1.17;;
27365;SDS011;14837;57.148;-2.144;2023-06-01T07:27:17;3.55;;;1.73;;
27365;SDS011;14837;57.148;-2.144;2023-06-01T07:29:44;5.70;;;1.10;;
27365;SDS011;14837;57.148;-2.144;2023-06-01T07:32:11;5.22;;;1.88;;
27365;SDS011;14837;57.148;-2.144;2023-06-01T07:34:38;5.07;;;1.55;;
27365;SDS011;14837;57.148;-2.144;2023-06-01T07:37:04;4.00;;;1.30;;
27365;SDS011;14837;57.148;-2.144;2023-06-01T07:39:43;4.25;;;1.55;;
27365;SDS011;14837;57.148;-2.144;2023-06-01T07:42:10;4.85;;;2.45;;
27365;SDS011;14837;57.148;-2.144;2023-06-01T07:44:36;2.92;;;1.40;;
27365;SDS011;14837;57.148;-2.144;2023-06-01T07:47:03;8.82;;;1.88;;
27365;SDS011;14837;57.148;-2.144;2023-06-01T07:49:30;6.07;;;1.95;;
27365;SDS011;14837;57.148;-2.144;2023-06-01T07:51:56;3.60;;;1.70;;
27365;SDS011;14837;57.148;-2.144;2023-06-01T07:54:25;4.78;;;1.50;;
27365;SDS011;14837;57.148;-2.144;2023-06-01T07:56:52;7.68;;;1.70;;
27365;SDS011;14837;57.148;-2.144;2023-06-01T07:59:19;5.10;;;1.30;;
27365;SDS011;14837;57.148;-2.144;2023-06-01T08:01:50;4.65;;;1.90;;
27365;SDS011;14837;57.148;-2.144;2023-06-01T08:04:18;4.97;;;1.50;;
27365;SDS011;14837;57.148;-2.144;2023-06-01T08:06:48;4.07;;;1.70;;
27365;SDS011;14837;57.148;-2.144;2023-06-01T08:09:15;4.00;;;1.73;;
27365;SDS011;14837;57.148;-2.144;2023-06-01T08:11:42;3.97;;;1.55;;
27365;SDS011;14837;57.148;-2.144;2023-06-01T08:14:08;2.80;;;1.55;;
27365;SDS011;14837;57.148;-2.144;2023-06-01T08:16:35;4.55;;;1.52;;
27365;SDS011;14837;57.148;-2.144;2023-06-01T08:19:02;5.30;;;1.98;;
27365;SDS011;14837;57.148;-2.144;2023-06-01T08:21:29;7.20;;;2.67;;
27365;SDS011;14837;57.148;-2.144;2023-06-01T08:23:56;6.65;;;2.10;;
27365;SDS011;14837;57.148;-2.144;2023-06-01T08:26:23;6.75;;;2.00;;
27365;SDS011;14837;57.148;-2.144;2023-06-01T08:28:50;2.90;;;1.25;;
27365;SDS011;14837;57.148;-2.144;2023-06-01T08:33:46;21.40;;;3.00;;
27365;SDS011;14837;57.148;-2.144;2023-06-01T08:36:13;3.85;;;1.33;;
27365;SDS011;14837;57.148;-2.144;2023-06-01T08:38:40;2.65;;;1.08;;
27365;SDS011;14837;57.148;-2.144;2023-06-01T08:41:14;4.20;;;1.88;;
27365;SDS011;14837;57.148;-2.144;2023-06-01T08:43:43;6.57;;;1.50;;
27365;SDS011;14837;57.148;-2.144;2023-06-01T08:46:13;4.70;;;1.30;;
27365;SDS011;14837;57.148;-2.144;2023-06-01T08:48:41;5.88;;;1.50;;
27365;SDS011;14837;57.148;-2.144;2023-06-01T08:51:09;4.38;;;1.35;;
27365;SDS011;14837;57.148;-2.144;2023-06-01T08:53:36;4.32;;;1.40;;
27365;SDS011;14837;57.148;-2.144;2023-06-01T08:56:05;2.60;;;1.30;;
27365;SDS011;14837;57.148;-2.144;2023-06-01T08:58:31;5.20;;;1.58;;
27365;SDS011;14837;57.148;-2.144;2023-06-01T09:00:58;3.72;;;1.20;;
27365;SDS011;14837;57.148;-2.144;2023-06-01T09:03:25;5.13;;;1.80;;
27365;SDS011;14837;57.148;-2.144;2023-06-01T09:05:52;2.50;;;1.10;;
27365;SDS011;14837;57.148;-2.144;2023-06-01T09:08:18;1.92;;;1.10;;
27365;SDS011;14837;57.148;-2.144;2023-06-01T09:10:45;4.20;;;1.55;;
27365;SDS011;14837;57.148;-2.144;2023-06-01T09:13:11;4.47;;;1.23;;
27365;SDS011;14837;57.148;-2.144;2023-06-01T09:15:51;4.32;;;1.20;;
27365;SDS011;14837;57.148;-2.144;2023-06-01T09:18:20;7.20;;;1.55;;
27365;SDS011;14837;57.148;-2.144;2023-06-01T09:20:47;4.03;;;1.42;;
27365;SDS011;14837;57.148;-2.144;2023-06-01T09:23:24;6.60;;;2.35;;
27365;SDS011;14837;57.148;-2.144;2023-06-01T09:26:06;5.97;;;1.40;;
27365;SDS011;14837;57.148;-2.144;2023-06-01T09:34:01;2.38;;;1.52;;
27365;SDS011;14837;57.148;-2.144;2023-06-01T09:36:28;4.97;;;1.50;;
27365;SDS011;14837;57.148;-2.144;2023-06-01T09:39:01;5.85;;;1.40;;
27365;SDS011;14837;57.148;-2.144;2023-06-01T09:41:43;3.42;;;1.70;;
27365;SDS011;14837;57.148;-2.144;2023-06-01T09:44:09;6.68;;;1.77;;
27365;SDS011;14837;57.148;-2.144;2023-06-01T09:49:34;6.30;;;1.73;;
27365;SDS011;14837;57.148;-2.144;2023-06-01T09:54:39;5.20;;;1.63;;
27365;SDS011;14837;57.148;-2.144;2023-06-01T09:57:07;7.30;;;2.35;;
27365;SDS011;14837;57.148;-2.144;2023-06-01T10:02:04;3.83;;;1.60;;
27365;SDS011;14837;57.148;-2.144;2023-06-01T10:04:32;6.80;;;1.90;;
27365;SDS011;14837;57.148;-2.144;2023-06-01T10:06:59;4.85;;;1.67;;
27365;SDS011;14837;57.148;-2.144;2023-06-01T10:09:29;5.95;;;1.38;;
27365;SDS011;14837;57.148;-2.144;2023-06-01T10:11:57;4.88;;;1.52;;
27365;SDS011;14837;57.148;-2.144;2023-06-01T10:14:24;4.50;;;1.83;;
27365;SDS011;14837;57.148;-2.144;2023-06-01T10:16:52;5.70;;;1.60;;
27365;SDS011;14837;57.148;-2.144;2023-06-01T10:19:20;6.05;;;1.40;;
27365;SDS011;14837;57.148;-2.144;2023-06-01T10:21:47;6.53;;;1.70;;
27365;SDS011;14837;57.148;-2.144;2023-06-01T10:24:14;8.70;;;2.03;;
27365;SDS011;14837;57.148;-2.144;2023-06-01T10:26:43;7.43;;;2.60;;
27365;SDS011;14837;57.148;-2.144;2023-06-01T10:29:14;7.75;;;2.58;;
27365;SDS011;14837;57.148;-2.144;2023-06-01T10:31:42;4.90;;;1.95;;
27365;SDS011;14837;57.148;-2.144;2023-06-01T10:34:09;5.05;;;1.85;;
27365;SDS011;14837;57.148;-2.144;2023-06-01T10:41:48;7.07;;;2.20;;
27365;SDS011;14837;57.148;-2.144;2023-06-01T10:44:44;6.18;;;1.98;;
27365;SDS011;14837;57.148;-2.144;2023-06-01T10:47:01;9.52;;;3.10;;
27365;SDS011;14837;57.148;-2.144;2023-06-01T10:54:58;5.53;;;2.15;;
27365;SDS011;14837;57.148;-2.144;2023-06-01T10:57:42;8.07;;;2.20;;
27365;SDS011;14837;57.148;-2.144;2023-06-01T11:08:02;8.70;;;2.30;;
27365;SDS011;14837;57.148;-2.144;2023-06-01T11:11:02;11.52;;;3.03;;
27365;SDS011;14837;57.148;-2.144;2023-06-01T11:13:34;6.97;;;2.42;;
27365;SDS011;14837;57.148;-2.144;2023-06-01T11:18:45;4.32;;;1.80;;
27365;SDS011;14837;57.148;-2.144;2023-06-01T11:21:26;10.95;;;2.13;;
27365;SDS011;14837;57.148;-2.144;2023-06-01T11:23:53;7.28;;;2.72;;
27365;SDS011;14837;57.148;-2.144;2023-06-01T11:26:24;7.47;;;2.65;;
27365;SDS011;14837;57.148;-2.144;2023-06-01T11:29:07;3.63;;;1.75;;
27365;SDS011;14837;57.148;-2.144;2023-06-01T11:31:44;12.13;;;2.70;;
27365;SDS011;14837;57.148;-2.144;2023-06-01T11:34:13;4.82;;;2.20;;
27365;SDS011;14837;57.148;-2.144;2023-06-01T11:36:41;6.93;;;2.15;;
27365;SDS011;14837;57.148;-2.144;2023-06-01T11:39:17;5.13;;;2.47;;
27365;SDS011;14837;57.148;-2.144;2023-06-01T11:41:51;4.07;;;1.83;;
27365;SDS011;14837;57.148;-2.144;2023-06-01T11:44:17;4.20;;;1.88;;
27365;SDS011;14837;57.148;-2.144;2023-06-01T11:46:51;8.13;;;1.70;;
27365;SDS011;14837;57.148;-2.144;2023-06-01T11:51:45;2.97;;;1.30;;
27365;SDS011;14837;57.148;-2.144;2023-06-01T11:54:11;4.60;;;1.33;;
27365;SDS011;14837;57.148;-2.144;2023-06-01T11:56:38;4.28;;;1.33;;
27365;SDS011;14837;57.148;-2.144;2023-06-01T11:59:05;2.35;;;1.27;;
27365;SDS011;14837;57.148;-2.144;2023-06-01T12:01:47;4.63;;;1.20;;
27365;SDS011;14837;57.148;-2.144;2023-06-01T12:04:18;4.05;;;1.48;;
27365;SDS011;14837;57.148;-2.144;2023-06-01T12:06:45;3.85;;;1.20;;
27365;SDS011;14837;57.148;-2.144;2023-06-01T12:09:12;5.55;;;1.38;;
27365;SDS011;14837;57.148;-2.144;2023-06-01T12:11:39;4.95;;;1.40;;
27365;SDS011;14837;57.148;-2.144;2023-06-01T12:14:07;2.83;;;1.60;;
27365;SDS011;14837;57.148;-2.144;2023-06-01T12:16:55;4.43;;;1.80;;
27365;SDS011;14837;57.148;-2.144;2023-06-01T12:19:23;4.47;;;1.27;;
27365;SDS011;14837;57.148;-2.144;2023-06-01T12:21:49;4.03;;;1.27;;
27365;SDS011;14837;57.148;-2.144;2023-06-01T12:24:30;1.98;;;1.10;;
27365;SDS011;14837;57.148;-2.144;2023-06-01T12:26:59;4.53;;;1.75;;
27365;SDS011;14837;57.148;-2.144;2023-06-01T12:29:39;6.65;;;1.63;;
27365;SDS011;14837;57.148;-2.144;2023-06-01T12:32:08;3.30;;;1.13;;
27365;SDS011;14837;57.148;-2.144;2023-06-01T12:34:35;2.33;;;1.10;;
27365;SDS011;14837;57.148;-2.144;2023-06-01T12:37:15;6.07;;;1.08;;
27365;SDS011;14837;57.148;-2.144;2023-06-01T12:39:42;1.75;;;1.13;;
27365;SDS011;14837;57.148;-2.144;2023-06-01T12:42:09;2.75;;;1.15;;
27365;SDS011;14837;57.148;-2.144;2023-06-01T12:44:38;3.63;;;0.90;;
27365;SDS011;14837;57.148;-2.144;2023-06-01T12:47:06;2.13;;;0.68;;
27365;SDS011;14837;57.148;-2.144;2023-06-01T12:49:33;4.05;;;0.77;;
27365;SDS011;14837;57.148;-2.144;2023-06-01T12:52:00;2.80;;;0.90;;
27365;SDS011;14837;57.148;-2.144;2023-06-01T12:54:28;1.80;;;0.60;;
27365;SDS011;14837;57.148;-2.144;2023-06-01T12:56:54;2.33;;;0.77;;
27365;SDS011;14837;57.148;-2.144;2023-06-01T12:59:22;2.60;;;0.80;;
27365;SDS011;14837;57.148;-2.144;2023-06-01T13:01:49;7.25;;;1.00;;
27365;SDS011;14837;57.148;-2.144;2023-06-01T13:04:16;2.92;;;0.70;;
27365;SDS011;14837;57.148;-2.144;2023-06-01T13:06:43;1.13;;;0.68;;
27365;SDS011;14837;57.148;-2.144;2023-06-01T13:09:11;3.80;;;0.80;;
27365;SDS011;14837;57.148;-2.144;2023-06-01T13:11:37;1.45;;;1.05;;
27365;SDS011;14837;57.148;-2.144;2023-06-01T13:14:04;1.55;;;0.80;;
27365;SDS011;14837;57.148;-2.144;2023-06-01T13:16:30;1.98;;;0.63;;
27365;SDS011;14837;57.148;-2.144;2023-06-01T13:18:57;1.88;;;0.60;;
27365;SDS011;14837;57.148;-2.144;2023-06-01T13:21:23;2.80;;;0.80;;
27365;SDS011;14837;57.148;-2.144;2023-06-01T13:23:50;1.95;;;0.98;;
27365;SDS011;14837;57.148;-2.144;2023-06-01T13:26:17;3.63;;;1.13;;
27365;SDS011;14837;57.148;-2.144;2023-06-01T13:28:44;3.22;;;0.85;;
27365;SDS011;14837;57.148;-2.144;2023-06-01T13:31:11;6.05;;;1.25;;
27365;SDS011;14837;57.148;-2.144;2023-06-01T13:33:37;5.88;;;1.75;;
27365;SDS011;14837;57.148;-2.144;2023-06-01T13:36:04;3.17;;;1.05;;
27365;SDS011;14837;57.148;-2.144;2023-06-01T13:38:32;2.83;;;1.40;;
27365;SDS011;14837;57.148;-2.144;2023-06-01T13:40:58;2.42;;;0.80;;
27365;SDS011;14837;57.148;-2.144;2023-06-01T13:43:25;6.55;;;1.48;;
27365;SDS011;14837;57.148;-2.144;2023-06-01T13:45:53;5.13;;;1.05;;
27365;SDS011;14837;57.148;-2.144;2023-06-01T13:48:19;4.57;;;1.10;;
27365;SDS011;14837;57.148;-2.144;2023-06-01T13:50:46;1.42;;;0.73;;
27365;SDS011;14837;57.148;-2.144;2023-06-01T13:53:13;3.50;;;1.10;;
27365;SDS011;14837;57.148;-2.144;2023-06-01T13:55:42;1.42;;;0.60;;
27365;SDS011;14837;57.148;-2.144;2023-06-01T13:58:08;4.78;;;1.00;;
27365;SDS011;14837;57.148;-2.144;2023-06-01T14:00:35;2.22;;;1.08;;
27365;SDS011;14837;57.148;-2.144;2023-06-01T14:03:02;4.20;;;1.67;;
27365;SDS011;14837;57.148;-2.144;2023-06-01T14:05:29;6.13;;;1.80;;
27365;SDS011;14837;57.148;-2.144;2023-06-01T14:08:15;5.55;;;1.95;;
27365;SDS011;14837;57.148;-2.144;2023-06-01T14:10:42;4.90;;;1.45;;
27365;SDS011;14837;57.148;-2.144;2023-06-01T14:13:09;9.43;;;2.25;;
27365;SDS011;14837;57.148;-2.144;2023-06-01T14:15:35;4.60;;;1.73;;
27365;SDS011;14837;57.148;-2.144;2023-06-01T14:18:02;11.75;;;2.75;;
27365;SDS011;14837;57.148;-2.144;2023-06-01T14:20:29;7.13;;;2.13;;
27365;SDS011;14837;57.148;-2.144;2023-06-01T14:22:56;8.85;;;3.00;;
27365;SDS011;14837;57.148;-2.144;2023-06-01T14:25:22;6.95;;;2.00;;
27365;SDS011;14837;57.148;-2.144;2023-06-01T14:27:49;6.97;;;2.10;;
27365;SDS011;14837;57.148;-2.144;2023-06-01T14:30:16;7.93;;;1.83;;
27365;SDS011;14837;57.148;-2.144;2023-06-01T14:32:43;8.52;;;1.60;;
27365;SDS011;14837;57.148;-2.144;2023-06-01T14:35:09;7.75;;;2.17;;
27365;SDS011;14837;57.148;-2.144;2023-06-01T14:37:42;8.27;;;2.40;;
27365;SDS011;14837;57.148;-2.144;2023-06-01T14:40:16;13.57;;;2.70;;
27365;SDS011;14837;57.148;-2.144;2023-06-01T14:42:42;7.82;;;1.98;;
27365;SDS011;14837;57.148;-2.144;2023-06-01T14:45:09;8.77;;;1.88;;
27365;SDS011;14837;57.148;-2.144;2023-06-01T14:47:37;5.40;;;1.95;;
27365;SDS011;14837;57.148;-2.144;2023-06-01T14:50:04;5.07;;;2.00;;
27365;SDS011;14837;57.148;-2.144;2023-06-01T14:52:31;8.73;;;2.20;;
27365;SDS011;14837;57.148;-2.144;2023-06-01T14:54:57;5.70;;;1.83;;
27365;SDS011;14837;57.148;-2.144;2023-06-01T14:57:24;7.45;;;2.63;;
27365;SDS011;14837;57.148;-2.144;2023-06-01T14:59:50;4.68;;;1.92;;
27365;SDS011;14837;57.148;-2.144;2023-06-01T15:02:30;4.90;;;1.90;;
27365;SDS011;14837;57.148;-2.144;2023-06-01T15:04:57;13.63;;;2.50;;
27365;SDS011;14837;57.148;-2.144;2023-06-01T15:07:23;5.97;;;1.63;;
27365;SDS011;14837;57.148;-2.144;2023-06-01T15:09:50;8.02;;;2.42;;
27365;SDS011;14837;57.148;-2.144;2023-06-01T15:12:18;6.88;;;2.20;;
27365;SDS011;14837;57.148;-2.144;2023-06-01T15:14:45;10.15;;;2.35;;
27365;SDS011;14837;57.148;-2.144;2023-06-01T15:17:12;11.57;;;2.22;;
27365;SDS011;14837;57.148;-2.144;2023-06-01T15:19:38;7.70;;;1.77;;
27365;SDS011;14837;57.148;-2.144;2023-06-01T15:22:05;7.43;;;2.05;;
27365;SDS011;14837;57.148;-2.144;2023-06-01T15:24:32;6.05;;;1.73;;
27365;SDS011;14837;57.148;-2.144;2023-06-01T15:26:59;5.25;;;1.52;;
27365;SDS011;14837;57.148;-2.144;2023-06-01T15:29:26;4.28;;;2.17;;
27365;SDS011;14837;57.148;-2.144;2023-06-01T15:31:52;4.40;;;1.83;;
27365;SDS011;14837;57.148;-2.144;2023-06-01T15:34:19;6.80;;;1.92;;
27365;SDS011;14837;57.148;-2.144;2023-06-01T15:36:46;5.20;;;2.22;;
27365;SDS011;14837;57.148;-2.144;2023-06-01T15:39:12;5.43;;;1.63;;
27365;SDS011;14837;57.148;-2.144;2023-06-01T15:41:39;4.40;;;1.67;;
27365;SDS011;14837;57.148;-2.144;2023-06-01T15:44:06;5.47;;;2.45;;
27365;SDS011;14837;57.148;-2.144;2023-06-01T15:46:33;5.30;;;1.77;;
27365;SDS011;14837;57.148;-2.144;2023-06-01T15:48:59;4.32;;;1.52;;
27365;SDS011;14837;57.148;-2.144;2023-06-01T15:51:26;3.55;;;1.63;;
27365;SDS011;14837;57.148;-2.144;2023-06-01T15:53:54;7.13;;;1.90;;
27365;SDS011;14837;57.148;-2.144;2023-06-01T15:56:20;4.32;;;1.70;;
27365;SDS011;14837;57.148;-2.144;2023-06-01T15:58:48;6.03;;;1.65;;
27365;SDS011;14837;57.148;-2.144;2023-06-01T16:01:16;4.50;;;2.33;;
27365;SDS011;14837;57.148;-2.144;2023-06-01T16:03:55;4.75;;;1.33;;